sensor_id;sensor_type;location;lat;lon;timestamp;P1;durP1;ratioP1;P2;durP2;ratioP2
53503;SDS011;39387;50.998;22.340;2023-01-13T00:00:12;23.27;;;10.88;;
53503;SDS011;39387;50.998;22.340;2023-01-13T00:03:01;27.30;;;12.73;;
53503;SDS011;39387;50.998;22.340;2023-01-13T00:05:29;23.40;;;11.07;;
53503;SDS011;39387;50.998;22.340;2023-01-13T00:07:57;23.13;;;10.57;;
53503;SDS011;39387;50.998;22.340;2023-01-13T00:10:24;24.65;;;10.60;;
53503;SDS011;39387;50.998;22.340;2023-01-13T00:12:51;26.33;;;11.43;;
53503;SDS011;39387;50.998;22.340;2023-01-13T00:15:19;23.75;;;10.15;;
53503;SDS011;39387;50.998;22.340;2023-01-13T00:17:46;19.42;;;10.43;;
53503;SDS011;39387;50.998;22.340;2023-01-13T00:20:15;24.27;;;10.95;;
53503;SDS011;39387;50.998;22.340;2023-01-13T00:22:43;21.20;;;10.35;;
53503;SDS011;39387;50.998;22.340;2023-01-13T00:25:10;23.58;;;10.35;;
53503;SDS011;39387;50.998;22.340;2023-01-13T00:27:37;22.33;;;10.05;;
53503;SDS011;39387;50.998;22.340;2023-01-13T00:30:05;27.15;;;11.95;;
53503;SDS011;39387;50.998;22.340;2023-01-13T00:32:34;24.98;;;10.90;;
53503;SDS011;39387;50.998;22.340;2023-01-13T00:35:01;22.80;;;10.75;;
53503;SDS011;39387;50.998;22.340;2023-01-13T00:37:30;21.92;;;10.00;;
53503;SDS011;39387;50.998;22.340;2023-01-13T00:39:57;23.88;;;10.77;;
53503;SDS011;39387;50.998;22.340;2023-01-13T00:42:25;25.65;;;11.07;;
53503;SDS011;39387;50.998;22.340;2023-01-13T00:45:10;25.13;;;11.63;;
53503;SDS011;39387;50.998;22.340;2023-01-13T00:47:37;25.95;;;11.20;;
53503;SDS011;39387;50.998;22.340;2023-01-13T00:50:05;31.20;;;12.13;;
53503;SDS011;39387;50.998;22.340;2023-01-13T00:52:34;25.90;;;11.02;;
53503;SDS011;39387;50.998;22.340;2023-01-13T00:55:01;23.27;;;11.00;;
53503;SDS011;39387;50.998;22.340;2023-01-13T00:57:29;25.52;;;11.25;;
53503;SDS011;39387;50.998;22.340;2023-01-13T00:59:56;22.83;;;10.10;;
53503;SDS011;39387;50.998;22.340;2023-01-13T01:02:23;26.48;;;11.18;;
53503;SDS011;39387;50.998;22.340;2023-01-13T01:04:51;31.90;;;11.68;;
53503;SDS011;39387;50.998;22.340;2023-01-13T01:07:18;28.35;;;11.60;;
53503;SDS011;39387;50.998;22.340;2023-01-13T01:09:48;28.42;;;11.45;;
53503;SDS011;39387;50.998;22.340;2023-01-13T01:12:15;28.20;;;11.30;;
53503;SDS011;39387;50.998;22.340;2023-01-13T01:14:42;24.77;;;11.10;;
53503;SDS011;39387;50.998;22.340;2023-01-13T01:17:10;29.35;;;11.85;;
53503;SDS011;39387;50.998;22.340;2023-01-13T01:19:37;22.33;;;11.20;;
53503;SDS011;39387;50.998;22.340;2023-01-13T01:22:05;21.27;;;9.57;;
53503;SDS011;39387;50.998;22.340;2023-01-13T01:24:32;22.63;;;10.27;;
53503;SDS011;39387;50.998;22.340;2023-01-13T01:27:01;23.33;;;10.45;;
53503;SDS011;39387;50.998;22.340;2023-01-13T01:29:28;21.63;;;9.48;;
53503;SDS011;39387;50.998;22.340;2023-01-13T01:31:56;22.55;;;10.25;;
53503;SDS011;39387;50.998;22.340;2023-01-13T01:34:23;24.00;;;10.45;;
53503;SDS011;39387;50.998;22.340;2023-01-13T01:36:51;21.02;;;9.73;;
53503;SDS011;39387;50.998;22.340;2023-01-13T01:39:18;24.80;;;10.38;;
53503;SDS011;39387;50.998;22.340;2023-01-13T01:41:45;29.15;;;11.75;;
53503;SDS011;39387;50.998;22.340;2023-01-13T01:44:51;21.63;;;10.68;;
53503;SDS011;39387;50.998;22.340;2023-01-13T01:47:25;26.17;;;11.30;;
53503;SDS011;39387;50.998;22.340;2023-01-13T01:49:54;24.15;;;11.50;;
53503;SDS011;39387;50.998;22.340;2023-01-13T01:52:23;23.45;;;10.23;;
53503;SDS011;39387;50.998;22.340;2023-01-13T01:54:53;28.45;;;11.15;;
53503;SDS011;39387;50.998;22.340;2023-01-13T01:57:24;24.35;;;11.00;;
53503;SDS011;39387;50.998;22.340;2023-01-13T01:59:55;25.67;;;10.57;;
53503;SDS011;39387;50.998;22.340;2023-01-13T02:04:52;20.83;;;9.43;;
53503;SDS011;39387;50.998;22.340;2023-01-13T02:07:22;22.27;;;9.73;;
53503;SDS011;39387;50.998;22.340;2023-01-13T02:09:50;28.10;;;11.45;;
53503;SDS011;39387;50.998;22.340;2023-01-13T02:12:19;22.65;;;10.27;;
53503;SDS011;39387;50.998;22.340;2023-01-13T02:14:56;23.63;;;10.88;;
53503;SDS011;39387;50.998;22.340;2023-01-13T02:26:16;22.77;;;10.23;;
53503;SDS011;39387;50.998;22.340;2023-01-13T02:29:11;20.48;;;9.82;;
53503;SDS011;39387;50.998;22.340;2023-01-13T02:32:05;21.30;;;9.20;;
53503;SDS011;39387;50.998;22.340;2023-01-13T02:34:47;23.95;;;9.23;;
53503;SDS011;39387;50.998;22.340;2023-01-13T02:37:19;17.83;;;8.40;;
53503;SDS011;39387;50.998;22.340;2023-01-13T02:39:51;23.27;;;8.98;;
53503;SDS011;39387;50.998;22.340;2023-01-13T02:42:22;26.90;;;10.82;;
53503;SDS011;39387;50.998;22.340;2023-01-13T02:45:11;28.35;;;11.07;;
53503;SDS011;39387;50.998;22.340;2023-01-13T02:47:43;27.73;;;10.57;;
53503;SDS011;39387;50.998;22.340;2023-01-13T02:50:12;33.45;;;11.48;;
53503;SDS011;39387;50.998;22.340;2023-01-13T02:52:43;25.52;;;11.27;;
53503;SDS011;39387;50.998;22.340;2023-01-13T02:55:13;26.15;;;11.18;;
53503;SDS011;39387;50.998;22.340;2023-01-13T02:57:42;24.05;;;10.18;;
53503;SDS011;39387;50.998;22.340;2023-01-13T03:00:11;24.52;;;9.25;;
53503;SDS011;39387;50.998;22.340;2023-01-13T03:02:39;19.13;;;8.82;;
53503;SDS011;39387;50.998;22.340;2023-01-13T03:05:09;21.55;;;9.32;;
53503;SDS011;39387;50.998;22.340;2023-01-13T03:07:42;19.05;;;8.68;;
53503;SDS011;39387;50.998;22.340;2023-01-13T03:10:31;21.23;;;10.07;;
53503;SDS011;39387;50.998;22.340;2023-01-13T03:13:08;24.33;;;9.68;;
53503;SDS011;39387;50.998;22.340;2023-01-13T03:15:42;23.30;;;9.55;;
53503;SDS011;39387;50.998;22.340;2023-01-13T03:18:17;23.00;;;9.73;;
53503;SDS011;39387;50.998;22.340;2023-01-13T03:20:53;22.40;;;9.70;;
53503;SDS011;39387;50.998;22.340;2023-01-13T03:23:26;22.13;;;9.55;;
53503;SDS011;39387;50.998;22.340;2023-01-13T03:25:59;21.15;;;9.57;;
53503;SDS011;39387;50.998;22.340;2023-01-13T03:28:31;21.92;;;8.90;;
53503;SDS011;39387;50.998;22.340;2023-01-13T03:31:00;23.45;;;9.80;;
53503;SDS011;39387;50.998;22.340;2023-01-13T03:33:32;17.40;;;8.55;;
53503;SDS011;39387;50.998;22.340;2023-01-13T03:36:03;21.10;;;8.55;;
53503;SDS011;39387;50.998;22.340;2023-01-13T03:38:34;18.38;;;7.70;;
53503;SDS011;39387;50.998;22.340;2023-01-13T03:41:04;17.83;;;7.90;;
53503;SDS011;39387;50.998;22.340;2023-01-13T03:43:33;20.67;;;8.75;;
53503;SDS011;39387;50.998;22.340;2023-01-13T03:46:20;20.70;;;7.95;;
53503;SDS011;39387;50.998;22.340;2023-01-13T03:48:50;15.38;;;8.20;;
53503;SDS011;39387;50.998;22.340;2023-01-13T03:51:20;20.13;;;8.30;;
53503;SDS011;39387;50.998;22.340;2023-01-13T03:53:48;16.63;;;8.70;;
53503;SDS011;39387;50.998;22.340;2023-01-13T03:56:20;20.15;;;8.88;;
53503;SDS011;39387;50.998;22.340;2023-01-13T03:58:50;16.58;;;8.32;;
53503;SDS011;39387;50.998;22.340;2023-01-13T04:01:20;17.55;;;7.72;;
53503;SDS011;39387;50.998;22.340;2023-01-13T04:03:49;19.15;;;8.43;;
53503;SDS011;39387;50.998;22.340;2023-01-13T04:08:50;16.60;;;6.93;;
53503;SDS011;39387;50.998;22.340;2023-01-13T04:11:21;15.30;;;6.60;;
53503;SDS011;39387;50.998;22.340;2023-01-13T04:13:52;17.65;;;7.55;;
53503;SDS011;39387;50.998;22.340;2023-01-13T04:16:19;13.85;;;7.25;;
53503;SDS011;39387;50.998;22.340;2023-01-13T04:18:47;13.70;;;6.32;;
53503;SDS011;39387;50.998;22.340;2023-01-13T04:21:16;12.13;;;6.40;;
53503;SDS011;39387;50.998;22.340;2023-01-13T04:23:44;16.42;;;7.50;;
53503;SDS011;39387;50.998;22.340;2023-01-13T04:26:16;12.80;;;6.70;;
53503;SDS011;39387;50.998;22.340;2023-01-13T04:28:44;14.63;;;7.45;;
53503;SDS011;39387;50.998;22.340;2023-01-13T04:31:11;12.95;;;6.75;;
53503;SDS011;39387;50.998;22.340;2023-01-13T04:33:38;14.32;;;6.97;;
53503;SDS011;39387;50.998;22.340;2023-01-13T04:36:06;10.38;;;5.93;;
53503;SDS011;39387;50.998;22.340;2023-01-13T04:38:34;13.57;;;6.55;;
53503;SDS011;39387;50.998;22.340;2023-01-13T04:41:03;13.27;;;6.82;;
53503;SDS011;39387;50.998;22.340;2023-01-13T04:43:30;12.07;;;6.13;;
53503;SDS011;39387;50.998;22.340;2023-01-13T04:45:58;13.13;;;6.45;;
53503;SDS011;39387;50.998;22.340;2023-01-13T04:48:25;12.98;;;5.72;;
53503;SDS011;39387;50.998;22.340;2023-01-13T04:50:52;12.65;;;6.35;;
53503;SDS011;39387;50.998;22.340;2023-01-13T04:53:19;13.95;;;6.60;;
53503;SDS011;39387;50.998;22.340;2023-01-13T04:55:47;12.13;;;5.93;;
53503;SDS011;39387;50.998;22.340;2023-01-13T04:58:15;10.80;;;5.50;;
53503;SDS011;39387;50.998;22.340;2023-01-13T05:00:43;13.45;;;5.85;;
53503;SDS011;39387;50.998;22.340;2023-01-13T05:03:10;12.23;;;5.78;;
53503;SDS011;39387;50.998;22.340;2023-01-13T05:05:38;13.70;;;5.57;;
53503;SDS011;39387;50.998;22.340;2023-01-13T05:08:05;11.63;;;5.90;;
53503;SDS011;39387;50.998;22.340;2023-01-13T05:10:33;12.40;;;5.47;;
53503;SDS011;39387;50.998;22.340;2023-01-13T05:13:01;10.95;;;5.80;;
53503;SDS011;39387;50.998;22.340;2023-01-13T05:15:47;12.35;;;5.53;;
53503;SDS011;39387;50.998;22.340;2023-01-13T05:18:31;10.60;;;5.38;;
53503;SDS011;39387;50.998;22.340;2023-01-13T05:20:59;11.18;;;5.13;;
53503;SDS011;39387;50.998;22.340;2023-01-13T05:23:27;9.45;;;5.03;;
53503;SDS011;39387;50.998;22.340;2023-01-13T05:26:12;11.57;;;5.57;;
53503;SDS011;39387;50.998;22.340;2023-01-13T05:28:39;9.93;;;5.10;;
53503;SDS011;39387;50.998;22.340;2023-01-13T05:31:08;11.18;;;5.20;;
53503;SDS011;39387;50.998;22.340;2023-01-13T05:33:36;10.38;;;5.22;;
53503;SDS011;39387;50.998;22.340;2023-01-13T05:36:04;10.65;;;4.75;;
53503;SDS011;39387;50.998;22.340;2023-01-13T05:38:31;8.18;;;4.97;;
53503;SDS011;39387;50.998;22.340;2023-01-13T05:40:59;8.68;;;4.28;;
53503;SDS011;39387;50.998;22.340;2023-01-13T05:43:43;10.82;;;5.15;;
53503;SDS011;39387;50.998;22.340;2023-01-13T05:46:12;9.75;;;5.13;;
53503;SDS011;39387;50.998;22.340;2023-01-13T05:48:42;11.35;;;5.18;;
53503;SDS011;39387;50.998;22.340;2023-01-13T05:51:10;10.50;;;5.07;;
53503;SDS011;39387;50.998;22.340;2023-01-13T05:53:37;10.07;;;5.40;;
53503;SDS011;39387;50.998;22.340;2023-01-13T05:56:06;12.15;;;5.47;;
53503;SDS011;39387;50.998;22.340;2023-01-13T05:58:35;10.23;;;4.88;;
53503;SDS011;39387;50.998;22.340;2023-01-13T06:01:03;8.95;;;5.15;;
53503;SDS011;39387;50.998;22.340;2023-01-13T06:03:33;9.13;;;5.43;;
53503;SDS011;39387;50.998;22.340;2023-01-13T06:06:01;8.68;;;4.95;;
53503;SDS011;39387;50.998;22.340;2023-01-13T06:08:29;10.57;;;5.50;;
53503;SDS011;39387;50.998;22.340;2023-01-13T06:10:56;9.45;;;5.70;;
53503;SDS011;39387;50.998;22.340;2023-01-13T06:13:24;11.40;;;5.22;;
53503;SDS011;39387;50.998;22.340;2023-01-13T06:15:54;8.85;;;5.18;;
53503;SDS011;39387;50.998;22.340;2023-01-13T06:18:22;9.93;;;5.03;;
53503;SDS011;39387;50.998;22.340;2023-01-13T06:20:51;8.07;;;5.07;;
53503;SDS011;39387;50.998;22.340;2023-01-13T06:23:18;9.23;;;5.07;;
53503;SDS011;39387;50.998;22.340;2023-01-13T06:25:46;8.13;;;4.68;;
53503;SDS011;39387;50.998;22.340;2023-01-13T06:28:17;11.07;;;4.93;;
53503;SDS011;39387;50.998;22.340;2023-01-13T06:30:47;9.70;;;5.00;;
53503;SDS011;39387;50.998;22.340;2023-01-13T06:33:16;9.20;;;4.80;;
53503;SDS011;39387;50.998;22.340;2023-01-13T06:35:47;9.50;;;4.75;;
53503;SDS011;39387;50.998;22.340;2023-01-13T06:38:18;9.27;;;4.82;;
53503;SDS011;39387;50.998;22.340;2023-01-13T06:40:47;8.00;;;4.70;;
53503;SDS011;39387;50.998;22.340;2023-01-13T06:43:14;9.07;;;5.20;;
53503;SDS011;39387;50.998;22.340;2023-01-13T06:45:41;8.70;;;4.88;;
53503;SDS011;39387;50.998;22.340;2023-01-13T06:48:10;10.80;;;5.25;;
53503;SDS011;39387;50.998;22.340;2023-01-13T06:50:37;7.95;;;4.80;;
53503;SDS011;39387;50.998;22.340;2023-01-13T06:53:08;12.82;;;4.93;;
53503;SDS011;39387;50.998;22.340;2023-01-13T06:55:35;8.43;;;4.68;;
53503;SDS011;39387;50.998;22.340;2023-01-13T06:58:02;10.10;;;4.68;;
53503;SDS011;39387;50.998;22.340;2023-01-13T07:00:30;8.43;;;4.50;;
53503;SDS011;39387;50.998;22.340;2023-01-13T07:03:06;8.05;;;4.25;;
53503;SDS011;39387;50.998;22.340;2023-01-13T07:05:35;8.98;;;4.60;;
53503;SDS011;39387;50.998;22.340;2023-01-13T07:08:02;7.70;;;4.25;;
53503;SDS011;39387;50.998;22.340;2023-01-13T07:10:32;9.20;;;4.10;;
53503;SDS011;39387;50.998;22.340;2023-01-13T07:12:59;7.70;;;4.15;;
53503;SDS011;39387;50.998;22.340;2023-01-13T07:15:54;9.07;;;4.65;;
53503;SDS011;39387;50.998;22.340;2023-01-13T07:18:22;11.00;;;4.90;;
53503;SDS011;39387;50.998;22.340;2023-01-13T07:20:53;7.68;;;4.18;;
53503;SDS011;39387;50.998;22.340;2023-01-13T07:23:21;8.45;;;4.40;;
53503;SDS011;39387;50.998;22.340;2023-01-13T07:25:50;6.93;;;4.32;;
53503;SDS011;39387;50.998;22.340;2023-01-13T07:28:17;9.40;;;5.22;;
53503;SDS011;39387;50.998;22.340;2023-01-13T07:30:45;8.02;;;4.45;;
53503;SDS011;39387;50.998;22.340;2023-01-13T07:33:12;6.65;;;4.15;;
53503;SDS011;39387;50.998;22.340;2023-01-13T07:35:40;8.63;;;4.30;;
53503;SDS011;39387;50.998;22.340;2023-01-13T07:38:07;7.22;;;4.50;;
53503;SDS011;39387;50.998;22.340;2023-01-13T07:40:34;8.27;;;4.97;;
53503;SDS011;39387;50.998;22.340;2023-01-13T07:43:03;7.68;;;4.43;;
53503;SDS011;39387;50.998;22.340;2023-01-13T07:45:53;10.10;;;4.90;;
53503;SDS011;39387;50.998;22.340;2023-01-13T07:48:21;5.88;;;3.63;;
53503;SDS011;39387;50.998;22.340;2023-01-13T07:50:49;8.10;;;3.97;;
53503;SDS011;39387;50.998;22.340;2023-01-13T07:53:16;11.40;;;4.80;;
53503;SDS011;39387;50.998;22.340;2023-01-13T07:55:44;8.40;;;4.85;;
53503;SDS011;39387;50.998;22.340;2023-01-13T07:58:12;8.52;;;4.32;;
53503;SDS011;39387;50.998;22.340;2023-01-13T08:00:40;10.73;;;5.90;;
53503;SDS011;39387;50.998;22.340;2023-01-13T08:03:07;7.57;;;4.57;;
53503;SDS011;39387;50.998;22.340;2023-01-13T08:05:34;9.55;;;4.47;;
53503;SDS011;39387;50.998;22.340;2023-01-13T08:08:02;8.10;;;4.18;;
53503;SDS011;39387;50.998;22.340;2023-01-13T08:10:29;7.93;;;4.63;;
53503;SDS011;39387;50.998;22.340;2023-01-13T08:12:56;9.50;;;4.78;;
53503;SDS011;39387;50.998;22.340;2023-01-13T08:15:43;5.68;;;4.03;;
53503;SDS011;39387;50.998;22.340;2023-01-13T08:18:10;7.63;;;4.05;;
53503;SDS011;39387;50.998;22.340;2023-01-13T08:20:38;6.55;;;3.92;;
53503;SDS011;39387;50.998;22.340;2023-01-13T08:23:05;7.90;;;4.35;;
53503;SDS011;39387;50.998;22.340;2023-01-13T08:25:33;9.57;;;4.68;;
53503;SDS011;39387;50.998;22.340;2023-01-13T08:28:00;7.15;;;4.10;;
53503;SDS011;39387;50.998;22.340;2023-01-13T08:30:28;8.00;;;4.20;;
53503;SDS011;39387;50.998;22.340;2023-01-13T08:32:56;7.38;;;4.55;;
53503;SDS011;39387;50.998;22.340;2023-01-13T08:35:24;6.70;;;4.35;;
53503;SDS011;39387;50.998;22.340;2023-01-13T08:37:51;6.80;;;4.43;;
53503;SDS011;39387;50.998;22.340;2023-01-13T08:40:19;7.10;;;4.40;;
53503;SDS011;39387;50.998;22.340;2023-01-13T08:42:46;8.05;;;4.20;;
53503;SDS011;39387;50.998;22.340;2023-01-13T08:45:14;7.03;;;4.00;;
53503;SDS011;39387;50.998;22.340;2023-01-13T08:47:41;6.82;;;4.13;;
53503;SDS011;39387;50.998;22.340;2023-01-13T08:50:10;9.60;;;4.40;;
53503;SDS011;39387;50.998;22.340;2023-01-13T08:52:38;9.63;;;4.55;;
53503;SDS011;39387;50.998;22.340;2023-01-13T08:55:06;7.20;;;4.45;;
53503;SDS011;39387;50.998;22.340;2023-01-13T08:57:33;7.55;;;4.47;;
53503;SDS011;39387;50.998;22.340;2023-01-13T09:00:01;8.55;;;4.68;;
53503;SDS011;39387;50.998;22.340;2023-01-13T09:02:29;11.30;;;4.68;;
53503;SDS011;39387;50.998;22.340;2023-01-13T09:04:57;7.50;;;4.32;;
53503;SDS011;39387;50.998;22.340;2023-01-13T09:07:29;8.32;;;4.82;;
53503;SDS011;39387;50.998;22.340;2023-01-13T09:09:57;8.38;;;4.50;;
53503;SDS011;39387;50.998;22.340;2023-01-13T09:12:24;9.05;;;5.20;;
53503;SDS011;39387;50.998;22.340;2023-01-13T09:15:09;7.68;;;4.20;;
53503;SDS011;39387;50.998;22.340;2023-01-13T09:17:37;6.70;;;4.20;;
53503;SDS011;39387;50.998;22.340;2023-01-13T09:20:04;7.35;;;4.00;;
53503;SDS011;39387;50.998;22.340;2023-01-13T09:22:33;6.85;;;4.10;;
53503;SDS011;39387;50.998;22.340;2023-01-13T09:25:02;7.03;;;4.00;;
53503;SDS011;39387;50.998;22.340;2023-01-13T09:27:29;8.40;;;4.57;;
53503;SDS011;39387;50.998;22.340;2023-01-13T09:29:57;8.38;;;4.47;;
53503;SDS011;39387;50.998;22.340;2023-01-13T09:32:24;9.82;;;4.57;;
53503;SDS011;39387;50.998;22.340;2023-01-13T09:34:52;7.85;;;4.53;;
53503;SDS011;39387;50.998;22.340;2023-01-13T09:37:28;8.52;;;4.30;;
53503;SDS011;39387;50.998;22.340;2023-01-13T09:40:00;8.07;;;4.22;;
53503;SDS011;39387;50.998;22.340;2023-01-13T09:42:30;7.25;;;4.25;;
53503;SDS011;39387;50.998;22.340;2023-01-13T09:45:20;7.53;;;4.57;;
53503;SDS011;39387;50.998;22.340;2023-01-13T09:47:50;8.48;;;4.22;;
53503;SDS011;39387;50.998;22.340;2023-01-13T09:50:28;8.20;;;4.15;;
53503;SDS011;39387;50.998;22.340;2023-01-13T09:52:59;8.40;;;4.45;;
53503;SDS011;39387;50.998;22.340;2023-01-13T09:55:31;7.97;;;4.30;;
53503;SDS011;39387;50.998;22.340;2023-01-13T09:58:01;6.45;;;3.72;;
53503;SDS011;39387;50.998;22.340;2023-01-13T10:00:34;8.18;;;4.28;;
53503;SDS011;39387;50.998;22.340;2023-01-13T10:03:14;8.93;;;3.78;;
53503;SDS011;39387;50.998;22.340;2023-01-13T10:05:47;6.30;;;3.90;;
53503;SDS011;39387;50.998;22.340;2023-01-13T10:10:47;6.55;;;4.00;;
53503;SDS011;39387;50.998;22.340;2023-01-13T10:15:48;5.50;;;3.70;;
53503;SDS011;39387;50.998;22.340;2023-01-13T10:18:24;6.85;;;4.30;;
53503;SDS011;39387;50.998;22.340;2023-01-13T10:20:56;7.18;;;4.00;;
53503;SDS011;39387;50.998;22.340;2023-01-13T10:23:33;6.07;;;3.88;;
53503;SDS011;39387;50.998;22.340;2023-01-13T10:26:14;7.63;;;4.15;;
53503;SDS011;39387;50.998;22.340;2023-01-13T10:28:51;6.68;;;4.07;;
53503;SDS011;39387;50.998;22.340;2023-01-13T10:31:19;8.20;;;4.35;;
53503;SDS011;39387;50.998;22.340;2023-01-13T10:33:47;7.07;;;3.85;;
53503;SDS011;39387;50.998;22.340;2023-01-13T10:36:15;6.55;;;3.78;;
53503;SDS011;39387;50.998;22.340;2023-01-13T10:38:46;6.60;;;3.90;;
53503;SDS011;39387;50.998;22.340;2023-01-13T10:41:22;7.40;;;4.13;;
53503;SDS011;39387;50.998;22.340;2023-01-13T10:43:57;7.85;;;4.30;;
53503;SDS011;39387;50.998;22.340;2023-01-13T10:46:27;8.68;;;4.55;;
53503;SDS011;39387;50.998;22.340;2023-01-13T10:48:55;16.63;;;9.00;;
53503;SDS011;39387;50.998;22.340;2023-01-13T10:51:24;7.07;;;5.05;;
53503;SDS011;39387;50.998;22.340;2023-01-13T10:53:54;11.18;;;7.75;;
53503;SDS011;39387;50.998;22.340;2023-01-13T10:56:24;13.50;;;8.75;;
53503;SDS011;39387;50.998;22.340;2023-01-13T10:59:07;8.02;;;4.72;;
53503;SDS011;39387;50.998;22.340;2023-01-13T11:01:39;7.68;;;4.93;;
53503;SDS011;39387;50.998;22.340;2023-01-13T11:04:15;6.97;;;4.57;;
53503;SDS011;39387;50.998;22.340;2023-01-13T11:06:52;8.95;;;4.90;;
53503;SDS011;39387;50.998;22.340;2023-01-13T11:09:20;6.60;;;4.63;;
53503;SDS011;39387;50.998;22.340;2023-01-13T11:11:50;8.93;;;5.03;;
53503;SDS011;39387;50.998;22.340;2023-01-13T11:14:22;6.72;;;3.97;;
53503;SDS011;39387;50.998;22.340;2023-01-13T11:17:03;7.93;;;4.50;;
53503;SDS011;39387;50.998;22.340;2023-01-13T11:19:35;8.57;;;3.85;;
53503;SDS011;39387;50.998;22.340;2023-01-13T11:22:05;6.55;;;4.10;;
53503;SDS011;39387;50.998;22.340;2023-01-13T11:24:35;7.20;;;3.88;;
53503;SDS011;39387;50.998;22.340;2023-01-13T11:27:07;6.57;;;4.28;;
53503;SDS011;39387;50.998;22.340;2023-01-13T11:29:40;7.63;;;4.10;;
53503;SDS011;39387;50.998;22.340;2023-01-13T11:32:11;9.07;;;5.13;;
53503;SDS011;39387;50.998;22.340;2023-01-13T11:34:43;9.45;;;4.85;;
53503;SDS011;39387;50.998;22.340;2023-01-13T11:37:14;8.55;;;4.47;;
53503;SDS011;39387;50.998;22.340;2023-01-13T11:39:46;7.85;;;4.38;;
53503;SDS011;39387;50.998;22.340;2023-01-13T11:42:21;8.15;;;4.85;;
53503;SDS011;39387;50.998;22.340;2023-01-13T11:44:53;7.38;;;4.50;;
53503;SDS011;39387;50.998;22.340;2023-01-13T11:47:27;8.30;;;4.50;;
53503;SDS011;39387;50.998;22.340;2023-01-13T11:49:54;16.98;;;9.60;;
53503;SDS011;39387;50.998;22.340;2023-01-13T11:52:22;13.30;;;7.10;;
53503;SDS011;39387;50.998;22.340;2023-01-13T11:54:59;8.75;;;5.07;;
53503;SDS011;39387;50.998;22.340;2023-01-13T11:57:44;7.47;;;4.75;;
53503;SDS011;39387;50.998;22.340;2023-01-13T12:00:30;8.07;;;4.68;;
53503;SDS011;39387;50.998;22.340;2023-01-13T12:03:13;6.10;;;4.00;;
53503;SDS011;39387;50.998;22.340;2023-01-13T12:05:48;7.97;;;4.65;;
53503;SDS011;39387;50.998;22.340;2023-01-13T12:08:34;6.53;;;3.97;;
53503;SDS011;39387;50.998;22.340;2023-01-13T12:11:11;7.72;;;4.60;;
53503;SDS011;39387;50.998;22.340;2023-01-13T12:13:45;8.30;;;4.32;;
53503;SDS011;39387;50.998;22.340;2023-01-13T12:16:19;7.38;;;4.65;;
53503;SDS011;39387;50.998;22.340;2023-01-13T12:21:37;9.63;;;5.13;;
53503;SDS011;39387;50.998;22.340;2023-01-13T12:24:21;7.50;;;4.25;;
53503;SDS011;39387;50.998;22.340;2023-01-13T12:26:53;8.32;;;4.53;;
53503;SDS011;39387;50.998;22.340;2023-01-13T12:29:25;8.65;;;4.78;;
53503;SDS011;39387;50.998;22.340;2023-01-13T12:31:55;6.88;;;4.07;;
53503;SDS011;39387;50.998;22.340;2023-01-13T12:34:26;7.85;;;4.13;;
53503;SDS011;39387;50.998;22.340;2023-01-13T12:37:01;6.75;;;4.30;;
53503;SDS011;39387;50.998;22.340;2023-01-13T12:39:36;8.30;;;4.93;;
53503;SDS011;39387;50.998;22.340;2023-01-13T12:42:12;7.65;;;4.57;;
53503;SDS011;39387;50.998;22.340;2023-01-13T12:47:51;7.82;;;4.78;;
53503;SDS011;39387;50.998;22.340;2023-01-13T13:02:30;8.00;;;4.55;;
53503;SDS011;39387;50.998;22.340;2023-01-13T13:08:02;8.70;;;4.30;;
53503;SDS011;39387;50.998;22.340;2023-01-13T13:10:33;8.40;;;4.47;;
53503;SDS011;39387;50.998;22.340;2023-01-13T13:13:04;7.97;;;4.47;;
53503;SDS011;39387;50.998;22.340;2023-01-13T13:15:44;8.63;;;4.75;;
53503;SDS011;39387;50.998;22.340;2023-01-13T13:21:05;8.40;;;4.70;;
53503;SDS011;39387;50.998;22.340;2023-01-13T13:23:36;8.43;;;5.10;;
53503;SDS011;39387;50.998;22.340;2023-01-13T13:26:16;9.65;;;5.30;;
53503;SDS011;39387;50.998;22.340;2023-01-13T13:28:49;9.77;;;4.93;;
53503;SDS011;39387;50.998;22.340;2023-01-13T13:31:28;9.15;;;5.05;;
53503;SDS011;39387;50.998;22.340;2023-01-13T13:34:12;8.68;;;4.43;;
53503;SDS011;39387;50.998;22.340;2023-01-13T13:36:47;8.52;;;4.70;;
53503;SDS011;39387;50.998;22.340;2023-01-13T13:39:21;7.07;;;4.65;;
53503;SDS011;39387;50.998;22.340;2023-01-13T13:42:11;8.55;;;5.05;;
53503;SDS011;39387;50.998;22.340;2023-01-13T13:44:57;9.82;;;5.43;;
53503;SDS011;39387;50.998;22.340;2023-01-13T13:47:42;9.65;;;6.22;;
53503;SDS011;39387;50.998;22.340;2023-01-13T13:50:13;9.60;;;5.60;;
53503;SDS011;39387;50.998;22.340;2023-01-13T13:52:45;6.75;;;4.90;;
53503;SDS011;39387;50.998;22.340;2023-01-13T13:55:19;9.85;;;5.55;;
53503;SDS011;39387;50.998;22.340;2023-01-13T13:57:48;10.00;;;5.47;;
53503;SDS011;39387;50.998;22.340;2023-01-13T14:00:21;7.93;;;5.18;;
53503;SDS011;39387;50.998;22.340;2023-01-13T14:02:50;8.52;;;4.93;;
53503;SDS011;39387;50.998;22.340;2023-01-13T14:05:22;8.30;;;4.32;;
53503;SDS011;39387;50.998;22.340;2023-01-13T14:07:55;7.65;;;4.57;;
53503;SDS011;39387;50.998;22.340;2023-01-13T14:10:27;7.53;;;4.43;;
53503;SDS011;39387;50.998;22.340;2023-01-13T14:15:29;9.63;;;4.38;;
53503;SDS011;39387;50.998;22.340;2023-01-13T14:17:58;7.35;;;3.75;;
53503;SDS011;39387;50.998;22.340;2023-01-13T14:20:28;7.28;;;4.32;;
53503;SDS011;39387;50.998;22.340;2023-01-13T14:22:55;9.48;;;4.18;;
53503;SDS011;39387;50.998;22.340;2023-01-13T14:25:27;9.05;;;4.68;;
53503;SDS011;39387;50.998;22.340;2023-01-13T14:27:56;6.68;;;4.00;;
53503;SDS011;39387;50.998;22.340;2023-01-13T14:30:26;7.65;;;4.15;;
53503;SDS011;39387;50.998;22.340;2023-01-13T14:32:54;7.93;;;4.38;;
53503;SDS011;39387;50.998;22.340;2023-01-13T14:35:22;6.65;;;4.55;;
53503;SDS011;39387;50.998;22.340;2023-01-13T14:37:50;6.72;;;3.92;;
53503;SDS011;39387;50.998;22.340;2023-01-13T14:40:42;7.78;;;4.00;;
53503;SDS011;39387;50.998;22.340;2023-01-13T14:43:13;7.85;;;4.25;;
53503;SDS011;39387;50.998;22.340;2023-01-13T14:45:51;9.77;;;4.88;;
53503;SDS011;39387;50.998;22.340;2023-01-13T14:48:21;8.70;;;4.50;;
53503;SDS011;39387;50.998;22.340;2023-01-13T14:50:55;8.55;;;4.78;;
53503;SDS011;39387;50.998;22.340;2023-01-13T14:53:36;9.98;;;4.60;;
53503;SDS011;39387;50.998;22.340;2023-01-13T15:02:02;7.85;;;4.50;;
53503;SDS011;39387;50.998;22.340;2023-01-13T15:04:54;9.27;;;4.65;;
53503;SDS011;39387;50.998;22.340;2023-01-13T15:07:24;8.80;;;4.97;;
53503;SDS011;39387;50.998;22.340;2023-01-13T15:09:54;7.97;;;4.40;;
53503;SDS011;39387;50.998;22.340;2023-01-13T15:12:26;11.10;;;5.30;;
53503;SDS011;39387;50.998;22.340;2023-01-13T15:14:56;8.10;;;4.63;;
53503;SDS011;39387;50.998;22.340;2023-01-13T15:17:23;8.48;;;4.57;;
53503;SDS011;39387;50.998;22.340;2023-01-13T15:19:52;9.35;;;4.28;;
53503;SDS011;39387;50.998;22.340;2023-01-13T15:22:19;8.07;;;4.40;;
53503;SDS011;39387;50.998;22.340;2023-01-13T15:24:47;9.55;;;4.78;;
53503;SDS011;39387;50.998;22.340;2023-01-13T15:27:17;7.93;;;4.57;;
53503;SDS011;39387;50.998;22.340;2023-01-13T15:32:16;9.98;;;4.80;;
53503;SDS011;39387;50.998;22.340;2023-01-13T15:34:44;11.00;;;4.85;;
53503;SDS011;39387;50.998;22.340;2023-01-13T15:37:11;7.82;;;4.60;;
53503;SDS011;39387;50.998;22.340;2023-01-13T15:39:39;9.35;;;4.85;;
53503;SDS011;39387;50.998;22.340;2023-01-13T15:42:08;10.55;;;5.05;;